Time;durP1;ratioP1;P1;durP2;ratioP2;P2;SDS_P1;SDS_P2;PMS_P1;PMS_P2;Temp;Humidity;BMP_temperature;BMP_pressure;BME280_temperature;BME280_humidity;BME280_pressure;Samples;Min_cycle;Max_cycle;Signal;HPM_P1;HPM_P2
2023/01/20 03:01:08;;;;;;;18.57;16.67;;;-0.80;99.90;;;;;;5741734;23;20675;-79
2023/01/20 03:03:38;;;;;;;18.33;16.53;;;-0.90;99.90;;;;;;4946781;29;20788;-78
2023/01/20 03:06:10;;;;;;;17.67;16.00;;;-0.90;99.90;;;;;;4948211;29;20454;-78
2023/01/20 03:08:39;;;;;;;17.33;15.73;;;-0.90;99.90;;;;;;4944720;29;20474;-77
2023/01/20 03:11:09;;;;;;;18.40;16.60;;;-0.90;99.90;;;;;;4944252;29;20464;-80
2023/01/20 03:13:41;;;;;;;17.83;16.23;;;-0.90;99.90;;;;;;4925122;29;20463;-79
2023/01/20 03:16:12;;;;;;;18.93;16.97;;;-0.90;99.90;;;;;;4922280;29;20936;-78
2023/01/20 03:18:39;;;;;;;19.13;17.10;;;-1.00;99.90;;;;;;4922240;29;20557;-80
2023/01/20 03:21:08;;;;;;;18.80;17.10;;;-1.00;99.90;;;;;;4936116;29;20484;-80
2023/01/20 03:23:38;;;;;;;19.37;17.33;;;-1.00;99.90;;;;;;4920775;29;20500;-78
2023/01/20 03:26:09;;;;;;;18.20;16.40;;;-1.00;99.90;;;;;;4920478;29;20496;-78
2023/01/20 03:28:36;;;;;;;17.80;16.00;;;-1.10;99.90;;;;;;4923885;29;20444;-78
2023/01/20 03:31:11;;;;;;;18.43;16.80;;;-1.10;99.90;;;;;;4923111;29;20532;-78
2023/01/20 03:33:39;;;;;;;18.70;17.10;;;-1.10;99.90;;;;;;4927360;29;20462;-78
2023/01/20 03:36:07;;;;;;;18.23;16.47;;;-1.10;99.90;;;;;;4920961;29;20523;-77
2023/01/20 03:38:34;;;;;;;18.77;17.17;;;-1.20;99.90;;;;;;4935218;29;20464;-78
2023/01/20 03:41:05;;;;;;;19.70;17.90;;;-1.20;99.90;;;;;;4919742;29;20488;-77
2023/01/20 03:43:39;;;;;;;20.80;18.70;;;-1.20;99.90;;;;;;4936024;29;20797;-79
2023/01/20 03:46:14;;;;;;;19.63;17.73;;;-1.20;99.90;;;;;;4924344;29;20452;-77
2023/01/20 03:48:49;;;;;;;20.63;18.43;;;-1.20;99.90;;;;;;4923364;29;20439;-78
2023/01/20 03:51:25;;;;;;;19.83;17.83;;;-1.20;99.90;;;;;;4923016;29;20464;-77
2023/01/20 03:53:55;;;;;;;20.83;18.83;;;-1.10;99.90;;;;;;4932693;29;20562;-83
2023/01/20 03:56:28;;;;;;;18.73;16.83;;;-1.10;99.90;;;;;;4935689;29;20463;-80
2023/01/20 03:58:59;;;;;;;19.03;17.23;;;-1.10;99.90;;;;;;4933614;29;20454;-79
2023/01/20 04:01:32;;;;;;;19.70;17.80;;;-1.20;99.90;;;;;;4936045;29;20474;-80
2023/01/20 04:04:02;;;;;;;18.33;16.63;;;-1.20;99.90;;;;;;4934668;29;20455;-80
2023/01/20 04:06:31;;;;;;;19.53;17.70;;;-1.20;99.90;;;;;;4930166;29;20455;-80
2023/01/20 04:09:02;;;;;;;19.27;17.47;;;-1.20;99.90;;;;;;4945668;29;20511;-81
2023/01/20 04:11:29;;;;;;;20.13;18.13;;;-1.10;99.90;;;;;;4933090;29;20457;-80
2023/01/20 04:13:56;;;;;;;17.60;16.00;;;-1.10;99.90;;;;;;4931735;29;20447;-80
2023/01/20 04:16:24;;;;;;;18.67;16.90;;;-1.10;99.90;;;;;;4929805;29;20488;-78
2023/01/20 04:18:52;;;;;;;18.93;17.23;;;-1.10;99.90;;;;;;4930065;29;20440;-81
2023/01/20 04:21:29;;;;;;;18.37;16.77;;;-1.20;99.90;;;;;;4935469;29;20484;-81
2023/01/20 04:24:00;;;;;;;18.57;17.00;;;-1.20;99.90;;;;;;4936143;29;20444;-82
2023/01/20 04:26:26;;;;;;;18.83;17.00;;;-1.20;99.90;;;;;;4938161;29;20440;-82
2023/01/20 04:28:53;;;;;;;19.03;17.33;;;-1.20;99.90;;;;;;4938406;29;20457;-80
2023/01/20 04:31:20;;;;;;;19.20;17.47;;;-1.20;99.90;;;;;;4933852;29;20498;-82
2023/01/20 04:33:47;;;;;;;18.90;17.20;;;-1.20;99.90;;;;;;4936403;29;20471;-84
2023/01/20 04:36:14;;;;;;;20.30;18.30;;;-1.20;99.90;;;;;;4938454;29;20463;-81
2023/01/20 04:38:42;;;;;;;19.47;17.70;;;-1.20;99.90;;;;;;4937267;29;20451;-83
2023/01/20 04:41:11;;;;;;;17.57;15.97;;;-1.10;99.90;;;;;;4937052;29;20611;-82
2023/01/20 04:43:38;;;;;;;18.23;16.63;;;-1.10;99.90;;;;;;4929095;29;20424;-80
2023/01/20 04:46:05;;;;;;;17.20;15.70;;;-1.10;99.90;;;;;;4925620;29;20832;-80
2023/01/20 04:48:32;;;;;;;17.77;16.13;;;-1.00;99.90;;;;;;4937466;29;20436;-80
2023/01/20 04:51:03;;;;;;;17.93;16.23;;;-1.00;99.90;;;;;;4925392;29;20460;-81
2023/01/20 04:53:29;;;;;;;18.90;17.20;;;-1.00;99.90;;;;;;4930702;29;20440;-80
2023/01/20 04:55:58;;;;;;;18.17;16.57;;;-0.90;99.90;;;;;;4920986;29;20440;-80
2023/01/20 04:58:25;;;;;;;18.13;16.43;;;-0.90;99.90;;;;;;4938598;29;20464;-82
2023/01/20 05:00:52;;;;;;;19.10;17.20;;;-0.80;99.90;;;;;;4928371;29;21277;-80
2023/01/20 05:03:19;;;;;;;19.80;18.03;;;-0.80;99.90;;;;;;4936846;29;20479;-81
2023/01/20 05:05:52;;;;;;;18.10;16.63;;;-0.80;99.90;;;;;;4937959;29;20464;-79
2023/01/20 05:08:19;;;;;;;19.67;17.83;;;-0.70;99.90;;;;;;4938494;29;20822;-81
2023/01/20 05:10:45;;;;;;;18.87;17.17;;;-0.70;99.90;;;;;;4922910;29;20524;-80
2023/01/20 05:13:14;;;;;;;18.30;16.73;;;-0.70;99.90;;;;;;4938648;29;20800;-79
2023/01/20 05:15:41;;;;;;;17.47;16.00;;;-0.70;99.90;;;;;;4934415;29;20495;-81
2023/01/20 05:18:08;;;;;;;19.33;17.43;;;-0.70;99.90;;;;;;4936884;29;20455;-81
2023/01/20 05:20:35;;;;;;;19.10;17.30;;;-0.70;99.90;;;;;;4947501;29;20511;-78
2023/01/20 05:23:02;;;;;;;19.17;17.43;;;-0.80;99.90;;;;;;4932216;29;20455;-78
2023/01/20 05:25:29;;;;;;;18.57;16.93;;;-0.80;99.90;;;;;;4951239;29;20527;-80
2023/01/20 05:27:56;;;;;;;19.47;17.70;;;-0.80;99.90;;;;;;4936868;29;20448;-79
2023/01/20 05:30:24;;;;;;;19.93;18.03;;;-0.70;99.90;;;;;;4920533;29;20971;-80
2023/01/20 05:32:51;;;;;;;19.67;17.93;;;-0.70;99.90;;;;;;4919767;29;21003;-79
2023/01/20 05:35:19;;;;;;;18.73;17.10;;;-0.70;99.90;;;;;;4942778;29;20482;-81
2023/01/20 05:37:46;;;;;;;19.77;18.07;;;-0.70;99.90;;;;;;4928699;29;20441;-83
2023/01/20 05:40:13;;;;;;;20.70;18.70;;;-0.70;99.90;;;;;;4918016;29;20484;-81
2023/01/20 05:42:40;;;;;;;18.40;16.83;;;-0.80;99.90;;;;;;4933538;29;20887;-82
2023/01/20 05:45:08;;;;;;;19.33;17.43;;;-0.80;99.90;;;;;;4938834;29;20464;-81
2023/01/20 05:47:37;;;;;;;19.20;17.40;;;-0.80;99.90;;;;;;4928279;29;20567;-80
2023/01/20 05:50:04;;;;;;;19.67;17.97;;;-0.80;99.90;;;;;;4936893;29;20455;-81
2023/01/20 05:52:31;;;;;;;20.00;18.20;;;-0.90;99.90;;;;;;4940552;29;20463;-82
2023/01/20 05:54:58;;;;;;;22.37;20.27;;;-0.80;99.90;;;;;;4935043;29;20451;-82
2023/01/20 05:57:25;;;;;;;20.73;18.93;;;-0.80;99.90;;;;;;4934160;29;20508;-81
2023/01/20 05:59:52;;;;;;;21.47;19.37;;;-0.70;99.90;;;;;;4942776;29;20472;-81
2023/01/20 06:02:19;;;;;;;21.07;19.17;;;-0.70;99.90;;;;;;4918431;29;20468;-83
2023/01/20 06:04:47;;;;;;;18.57;17.07;;;-0.70;99.90;;;;;;4931374;29;20461;-78
2023/01/20 06:07:14;;;;;;;18.80;17.10;;;-0.80;99.90;;;;;;4919256;29;20831;-78
2023/01/20 06:09:41;;;;;;;19.73;17.83;;;-0.80;99.90;;;;;;4924920;29;20451;-78
2023/01/20 06:12:08;;;;;;;20.20;18.33;;;-0.80;99.90;;;;;;4938127;29;20515;-78
2023/01/20 06:14:35;;;;;;;19.67;17.97;;;-0.80;99.90;;;;;;4928012;29;20832;-77
2023/01/20 06:17:02;;;;;;;19.13;17.40;;;-0.80;99.90;;;;;;4924438;29;20479;-78
2023/01/20 06:19:28;;;;;;;18.63;17.03;;;-0.80;99.90;;;;;;4924511;29;20489;-78
2023/01/20 06:21:57;;;;;;;17.73;16.30;;;-0.80;99.90;;;;;;4931641;29;20495;-78
2023/01/20 06:24:24;;;;;;;18.33;16.80;;;-0.80;99.90;;;;;;4919503;29;20435;-79
2023/01/20 06:26:51;;;;;;;19.53;17.83;;;-0.80;99.90;;;;;;4931526;29;21044;-78
2023/01/20 06:29:17;;;;;;;19.00;17.40;;;-0.80;99.90;;;;;;4920043;29;20945;-79
2023/01/20 06:31:44;;;;;;;18.70;17.10;;;-0.80;99.90;;;;;;4934053;29;20482;-78
2023/01/20 06:34:12;;;;;;;19.40;17.60;;;-0.80;99.90;;;;;;4919161;29;20945;-79
2023/01/20 06:36:39;;;;;;;19.83;17.93;;;-0.70;99.90;;;;;;4935428;29;20453;-78
2023/01/20 06:39:07;;;;;;;19.73;17.80;;;-0.70;99.90;;;;;;4921438;29;20761;-78
2023/01/20 06:41:34;;;;;;;20.03;18.33;;;-0.70;99.90;;;;;;4925360;29;20527;-78
2023/01/20 06:44:01;;;;;;;20.53;18.63;;;-0.70;99.90;;;;;;4931484;29;20973;-77
2023/01/20 06:46:27;;;;;;;20.90;18.77;;;-0.70;99.90;;;;;;4933689;29;20511;-78
2023/01/20 06:48:59;;;;;;;20.20;18.43;;;-0.70;99.90;;;;;;4934724;29;20874;-79
2023/01/20 06:51:27;;;;;;;20.63;18.73;;;-0.70;99.90;;;;;;4930155;29;20471;-78
2023/01/20 06:53:54;;;;;;;20.93;18.93;;;-0.70;99.90;;;;;;4932256;29;20457;-77
2023/01/20 06:56:23;;;;;;;20.87;18.97;;;-0.70;99.90;;;;;;4938630;29;20456;-78
2023/01/20 06:58:50;;;;;;;20.10;18.37;;;-0.70;99.90;;;;;;4924709;29;20465;-78
2023/01/20 07:01:21;;;;;;;19.23;17.43;;;-0.70;99.90;;;;;;4930785;29;21009;-79
2023/01/20 07:03:48;;;;;;;21.17;19.13;;;-0.60;99.90;;;;;;4919452;29;20821;-77
2023/01/20 07:06:17;;;;;;;21.20;19.10;;;-0.60;99.90;;;;;;4916014;29;20440;-79
2023/01/20 07:08:43;;;;;;;21.00;19.03;;;-0.60;99.90;;;;;;4916969;29;20448;-79
2023/01/20 07:11:10;;;;;;;19.63;17.93;;;-0.60;99.90;;;;;;4923263;29;20705;-78
2023/01/20 07:13:38;;;;;;;20.37;18.47;;;-0.50;99.90;;;;;;4927829;29;20502;-77
2023/01/20 07:16:06;;;;;;;20.17;18.37;;;-0.50;99.90;;;;;;4924741;29;20860;-78
2023/01/20 07:18:32;;;;;;;20.10;18.27;;;-0.50;99.90;;;;;;4919405;29;20445;-79
2023/01/20 07:21:00;;;;;;;19.60;17.63;;;-0.50;99.90;;;;;;4945106;29;20571;-78
2023/01/20 07:23:28;;;;;;;20.10;18.20;;;-0.50;99.90;;;;;;4924052;29;20480;-78
2023/01/20 07:25:59;;;;;;;21.17;19.13;;;-0.40;99.90;;;;;;4917283;29;20457;-78
2023/01/20 07:28:26;;;;;;;22.30;20.00;;;-0.40;99.90;;;;;;4930950;29;20449;-78
2023/01/20 07:30:54;;;;;;;22.20;19.97;;;-0.40;99.90;;;;;;4919063;29;20466;-78
2023/01/20 07:33:21;;;;;;;22.03;19.83;;;-0.40;99.90;;;;;;4918610;29;20528;-78
2023/01/20 07:35:52;;;;;;;24.13;21.93;;;-0.30;99.90;;;;;;4923260;29;20504;-79
2023/01/20 07:38:19;;;;;;;23.20;21.10;;;-0.20;99.90;;;;;;4933306;29;20833;-78
2023/01/20 07:40:46;;;;;;;21.97;19.77;;;-0.20;99.90;;;;;;4919995;29;20483;-78
2023/01/20 07:43:12;;;;;;;20.40;18.70;;;-0.20;99.90;;;;;;4931474;29;20867;-79
2023/01/20 07:45:39;;;;;;;20.80;18.77;;;-0.10;99.90;;;;;;4925906;29;20440;-77
2023/01/20 07:48:07;;;;;;;30.37;23.50;;;-0.10;99.90;;;;;;4923967;29;20463;-78
2023/01/20 07:50:34;;;;;;;28.40;22.67;;;-0.10;99.90;;;;;;4928316;29;20556;-78
2023/01/20 07:53:01;;;;;;;24.00;21.47;;;-0.20;99.90;;;;;;4918542;29;20512;-78
2023/01/20 07:55:28;;;;;;;21.27;19.23;;;-0.20;99.90;;;;;;4932752;29;20512;-78
2023/01/20 07:57:56;;;;;;;22.03;19.83;;;-0.20;99.90;;;;;;4933965;29;20451;-75
2023/01/20 08:00:22;;;;;;;21.63;19.63;;;-0.30;99.90;;;;;;4924723;29;20452;-79
2023/01/20 08:02:50;;;;;;;20.93;19.13;;;-0.20;99.90;;;;;;4924778;29;20464;-79
2023/01/20 08:05:18;;;;;;;21.17;19.27;;;-0.20;99.90;;;;;;4919459;29;20503;-80
2023/01/20 08:07:49;;;;;;;20.60;18.67;;;-0.10;99.90;;;;;;4926426;29;20452;-80
2023/01/20 08:10:16;;;;;;;21.20;19.07;;;-0.10;99.90;;;;;;4927613;29;20457;-79
2023/01/20 08:12:43;;;;;;;21.60;19.50;;;0.00;99.90;;;;;;4922200;29;20457;-80
2023/01/20 08:15:11;;;;;;;22.70;20.50;;;0.00;99.90;;;;;;4921540;29;20481;-79
2023/01/20 08:17:38;;;;;;;22.30;20.20;;;0.00;99.90;;;;;;4937249;29;20514;-80
2023/01/20 08:20:06;;;;;;;21.87;19.77;;;0.00;99.90;;;;;;4935542;29;20510;-80
2023/01/20 08:22:34;;;;;;;22.77;19.07;;;0.10;99.90;;;;;;4935544;29;20558;-80
2023/01/20 08:25:01;;;;;;;22.57;20.33;;;0.20;99.90;;;;;;4931353;29;20452;-78
2023/01/20 08:27:28;;;;;;;21.47;19.47;;;0.20;99.90;;;;;;4933658;29;20482;-80
2023/01/20 08:29:55;;;;;;;20.50;18.63;;;0.30;99.90;;;;;;4935421;29;20457;-81
2023/01/20 08:32:22;;;;;;;20.47;18.47;;;0.30;99.90;;;;;;4926850;29;20858;-77
2023/01/20 08:34:48;;;;;;;20.10;18.17;;;0.40;99.90;;;;;;4927104;29;20442;-77
2023/01/20 08:37:15;;;;;;;21.80;19.50;;;0.40;99.90;;;;;;4932321;29;21153;-78
2023/01/20 08:39:43;;;;;;;20.83;18.70;;;0.40;99.90;;;;;;4916627;29;20939;-78
2023/01/20 08:42:10;;;;;;;20.23;18.23;;;0.40;99.90;;;;;;4917723;29;20997;-78
2023/01/20 08:44:37;;;;;;;19.10;17.20;;;0.40;99.90;;;;;;4917715;29;20493;-77
2023/01/20 08:47:04;;;;;;;19.77;17.87;;;0.40;99.90;;;;;;4926533;29;20481;-78
2023/01/20 08:49:31;;;;;;;18.53;16.83;;;0.30;99.90;;;;;;4932022;29;20444;-79
2023/01/20 08:51:58;;;;;;;19.43;17.53;;;0.40;99.90;;;;;;4931325;29;20532;-79
2023/01/20 08:54:28;;;;;;;19.70;17.93;;;0.40;99.90;;;;;;4916633;29;20457;-80
2023/01/20 08:56:56;;;;;;;20.23;18.00;;;0.30;99.90;;;;;;4916149;29;20871;-80
2023/01/20 08:59:23;;;;;;;20.63;18.43;;;0.30;99.90;;;;;;4930908;29;20452;-78
2023/01/20 09:01:49;;;;;;;19.20;17.53;;;0.40;99.90;;;;;;4915969;29;20547;-78
2023/01/20 09:04:16;;;;;;;18.37;16.40;;;0.40;99.90;;;;;;4932979;29;20454;-78
2023/01/20 09:06:45;;;;;;;19.57;17.50;;;0.50;99.90;;;;;;4934866;29;20454;-79
2023/01/20 09:09:13;;;;;;;20.80;18.80;;;0.60;99.90;;;;;;4932563;29;20894;-81
2023/01/20 09:11:43;;;;;;;20.23;18.33;;;0.70;99.90;;;;;;4930893;29;20544;-80
2023/01/20 09:14:12;;;;;;;19.00;17.40;;;0.60;99.90;;;;;;4919921;29;20455;-77
2023/01/20 09:16:39;;;;;;;20.13;18.23;;;0.60;99.90;;;;;;4934200;29;20448;-81
2023/01/20 09:19:06;;;;;;;19.77;17.97;;;0.70;99.90;;;;;;4931598;29;20512;-81
2023/01/20 09:21:32;;;;;;;20.27;18.43;;;0.80;99.90;;;;;;4924103;29;20524;-77
2023/01/20 09:23:59;;;;;;;19.90;17.90;;;0.80;99.90;;;;;;4925610;29;20558;-76
2023/01/20 09:26:26;;;;;;;18.40;16.67;;;0.90;99.90;;;;;;4926471;29;20452;-77
2023/01/20 09:28:53;;;;;;;18.30;16.67;;;1.10;99.90;;;;;;4931483;29;20505;-77
2023/01/20 09:31:21;;;;;;;18.00;16.30;;;1.20;99.90;;;;;;4931952;29;20510;-77
2023/01/20 09:33:48;;;;;;;19.07;17.27;;;1.30;99.90;;;;;;4933088;29;20546;-77
2023/01/20 09:36:15;;;;;;;18.97;17.23;;;1.30;99.90;;;;;;4927539;29;21061;-77
2023/01/20 09:44:40;;;;;;;17.40;15.80;;;1.40;99.90;;;;;;4935616;29;20455;-77
2023/01/20 09:47:23;;;;;;;19.43;17.63;;;1.40;99.90;;;;;;4919992;29;20452;-77
2023/01/20 09:53:14;;;;;;;19.83;18.03;;;1.60;99.90;;;;;;4905596;29;20978;-77
2023/01/20 09:55:46;;;;;;;20.03;18.23;;;1.70;99.90;;;;;;4920040;29;20450;-78
2023/01/20 09:58:25;;;;;;;19.83;18.03;;;1.80;99.90;;;;;;4926894;29;20499;-77
2023/01/20 10:00:58;;;;;;;20.37;18.17;;;1.90;99.90;;;;;;4925684;29;20474;-77
2023/01/20 10:03:35;;;;;;;19.83;17.83;;;2.00;99.90;;;;;;4919613;29;20199;-77
2023/01/20 10:06:08;;;;;;;18.97;17.27;;;2.10;99.90;;;;;;4925232;29;20740;-78
2023/01/20 10:08:40;;;;;;;19.20;17.50;;;2.00;99.90;;;;;;4922645;29;20207;-77
2023/01/20 10:11:11;;;;;;;19.47;17.83;;;2.00;99.90;;;;;;4932469;29;20251;-77
2023/01/20 10:13:46;;;;;;;18.77;17.10;;;1.90;99.90;;;;;;4933874;29;20208;-78
2023/01/20 10:16:23;;;;;;;18.90;17.13;;;1.90;99.90;;;;;;4932739;29;20988;-78
2023/01/20 10:18:57;;;;;;;19.37;17.67;;;1.90;99.90;;;;;;4930531;29;20735;-77
2023/01/20 10:21:31;;;;;;;18.77;17.27;;;1.90;99.90;;;;;;4933614;29;20482;-78
2023/01/20 10:24:03;;;;;;;19.97;18.07;;;2.00;99.90;;;;;;4934483;29;20240;-78
2023/01/20 10:26:37;;;;;;;18.63;16.97;;;1.90;99.90;;;;;;4934417;29;20207;-79
2023/01/20 10:29:07;;;;;;;19.17;17.37;;;1.90;99.90;;;;;;4925009;29;20227;-78
2023/01/20 10:31:38;;;;;;;18.53;16.80;;;1.90;99.90;;;;;;4915836;29;20216;-78
2023/01/20 10:34:12;;;;;;;18.27;16.57;;;1.90;99.90;;;;;;4922572;29;20211;-77
2023/01/20 10:36:43;;;;;;;17.93;16.43;;;1.90;99.90;;;;;;4943640;29;20211;-78
2023/01/20 10:39:20;;;;;;;18.53;16.87;;;1.80;99.90;;;;;;4926027;29;20436;-77
2023/01/20 10:41:52;;;;;;;18.70;17.20;;;1.70;99.90;;;;;;4919819;29;20569;-78
2023/01/20 10:44:19;;;;;;;18.77;17.17;;;1.70;99.90;;;;;;4928266;29;20572;-77
2023/01/20 10:47:04;;;;;;;17.87;16.47;;;1.60;99.90;;;;;;4933035;29;20263;-77
2023/01/20 10:49:58;;;;;;;18.93;17.20;;;1.60;99.90;;;;;;4919375;29;20503;-77
2023/01/20 10:52:50;;;;;;;19.87;18.17;;;1.60;99.90;;;;;;4920760;29;20901;-78
2023/01/20 10:55:26;;;;;;;19.40;17.60;;;1.60;99.90;;;;;;4928687;29;20238;-80
2023/01/20 10:57:56;;;;;;;18.60;17.00;;;1.50;99.90;;;;;;4920396;29;20503;-77
2023/01/20 11:00:26;;;;;;;19.20;17.50;;;1.50;99.90;;;;;;4924332;29;20514;-77
2023/01/20 11:02:55;;;;;;;18.20;16.60;;;1.50;99.90;;;;;;4929399;29;20492;-78
2023/01/20 11:05:26;;;;;;;18.90;17.03;;;1.50;99.90;;;;;;4923603;29;20695;-78
2023/01/20 11:07:56;;;;;;;17.53;15.97;;;1.50;99.90;;;;;;4918677;29;20448;-77
2023/01/20 11:10:26;;;;;;;17.93;16.50;;;1.50;99.90;;;;;;4913695;29;20509;-78
2023/01/20 11:12:58;;;;;;;17.90;16.40;;;1.50;99.90;;;;;;4925706;29;20439;-77
2023/01/20 11:15:29;;;;;;;18.13;16.63;;;1.40;99.90;;;;;;4920055;29;20450;-77
2023/01/20 11:18:26;;;;;;;17.73;16.33;;;1.40;99.90;;;;;;4921680;29;20495;-78
2023/01/20 11:20:59;;;;;;;18.13;16.63;;;1.50;99.90;;;;;;4931546;29;20477;-78
2023/01/20 11:23:34;;;;;;;17.87;16.37;;;1.70;99.90;;;;;;4942028;28;20480;-78
2023/01/20 11:26:08;;;;;;;18.13;16.53;;;1.80;99.90;;;;;;4926812;29;20545;-79
2023/01/20 11:28:51;;;;;;;17.67;16.10;;;1.80;99.90;;;;;;4928179;29;20452;-78
2023/01/20 11:31:19;;;;;;;16.97;15.47;;;1.90;99.90;;;;;;4917139;29;20479;-78
2023/01/20 11:33:57;;;;;;;16.57;15.17;;;2.00;99.90;;;;;;4926423;29;20451;-77
2023/01/20 11:36:26;;;;;;;16.23;14.77;;;2.00;99.90;;;;;;4927474;29;20452;-80
2023/01/20 11:38:55;;;;;;;16.83;15.33;;;2.10;99.90;;;;;;4930873;29;20454;-77
2023/01/20 11:41:23;;;;;;;17.20;15.70;;;2.20;99.90;;;;;;4917747;29;20523;-78
2023/01/20 11:43:55;;;;;;;17.03;15.63;;;2.20;99.90;;;;;;4935102;29;20479;-80
2023/01/20 11:46:25;;;;;;;17.33;15.83;;;2.20;99.90;;;;;;4930524;29;21202;-78
2023/01/20 11:49:13;;;;;;;17.10;15.60;;;2.10;99.90;;;;;;4934248;29;20251;-76
2023/01/20 11:51:47;;;;;;;17.10;15.80;;;2.10;99.90;;;;;;4932335;29;20897;-76
2023/01/20 11:54:16;;;;;;;17.30;15.90;;;2.10;99.90;;;;;;4941322;29;20458;-77
2023/01/20 11:56:46;;;;;;;17.27;15.77;;;2.20;99.90;;;;;;4935258;29;20455;-77
2023/01/20 11:59:26;;;;;;;16.03;14.73;;;2.30;99.90;;;;;;4932556;29;20204;-77
2023/01/20 12:02:00;;;;;;;17.23;15.73;;;2.40;99.90;;;;;;4918014;29;20491;-78
2023/01/20 12:04:49;;;;;;;16.60;15.30;;;2.30;99.90;;;;;;4919571;29;20439;-79
2023/01/20 12:07:23;;;;;;;16.90;15.63;;;2.40;99.90;;;;;;4936661;29;20204;-77
2023/01/20 12:09:53;;;;;;;16.33;14.83;;;2.40;99.90;;;;;;4932316;29;20287;-79
2023/01/20 12:12:27;;;;;;;16.90;15.50;;;2.30;99.90;;;;;;4927022;29;20724;-77
2023/01/20 12:15:01;;;;;;;16.47;15.20;;;2.30;99.90;;;;;;4928240;29;20455;-77
2023/01/20 12:17:45;;;;;;;16.50;15.10;;;2.40;99.90;;;;;;4941247;29;20475;-79
2023/01/20 12:20:23;;;;;;;16.27;14.97;;;2.70;99.90;;;;;;4920598;29;20210;-80
2023/01/20 12:23:04;;;;;;;16.17;14.90;;;2.80;99.90;;;;;;4936024;29;20226;-80
2023/01/20 12:25:36;;;;;;;17.13;15.83;;;2.80;99.90;;;;;;4941953;29;20256;-80
2023/01/20 12:28:10;;;;;;;16.50;15.17;;;2.80;99.90;;;;;;4922162;29;20203;-79
2023/01/20 12:30:50;;;;;;;16.93;15.63;;;2.90;99.90;;;;;;4934422;29;20210;-81
2023/01/20 12:33:22;;;;;;;17.13;15.63;;;2.90;99.90;;;;;;4927989;29;20263;-78
2023/01/20 12:36:29;;;;;;;16.63;15.43;;;2.90;99.90;;;;;;4923051;29;20286;-77
2023/01/20 12:39:25;;;;;;;16.47;15.07;;;2.90;99.90;;;;;;4921057;29;20195;-76
2023/01/20 12:42:07;;;;;;;16.37;15.07;;;2.90;99.90;;;;;;4931393;29;20267;-77
2023/01/20 12:44:40;;;;;;;16.03;14.73;;;2.90;99.90;;;;;;4926622;29;20192;-76
2023/01/20 12:47:19;;;;;;;15.73;14.33;;;3.00;99.90;;;;;;4927108;29;20203;-78
2023/01/20 12:50:03;;;;;;;15.83;14.50;;;3.20;99.90;;;;;;4924336;29;20629;-77
2023/01/20 12:52:45;;;;;;;16.07;14.77;;;3.40;99.90;;;;;;4921899;29;20220;-77
2023/01/20 12:55:31;;;;;;;15.77;14.30;;;3.50;99.90;;;;;;4928831;29;20208;-78
2023/01/20 12:58:07;;;;;;;15.37;14.27;;;3.80;99.90;;;;;;4919866;29;20624;-78
2023/01/20 13:01:00;;;;;;;16.60;15.13;;;4.10;99.90;;;;;;4923557;29;20224;-76
2023/01/20 13:03:51;;;;;;;14.70;13.50;;;4.40;99.90;;;;;;4925619;29;20800;-81
2023/01/20 13:06:49;;;;;;;15.27;14.07;;;4.50;99.90;;;;;;4931830;29;20208;-82
2023/01/20 13:09:44;;;;;;;15.27;14.10;;;4.80;99.90;;;;;;4927844;29;20229;-77
2023/01/20 13:12:33;;;;;;;14.30;13.30;;;5.10;99.90;;;;;;4929443;29;20272;-80
2023/01/20 13:15:05;;;;;;;14.90;13.50;;;5.20;99.90;;;;;;4933700;29;20629;-80
2023/01/20 13:17:39;;;;;;;13.70;12.77;;;5.30;99.90;;;;;;4935762;29;20205;-80
2023/01/20 13:20:19;;;;;;;14.50;13.13;;;5.20;99.90;;;;;;4918261;29;20589;-81
2023/01/20 13:22:46;;;;;;;14.80;13.80;;;5.20;99.90;;;;;;4925737;29;20675;-80
2023/01/20 13:25:15;;;;;;;13.50;12.60;;;5.10;99.90;;;;;;4934008;29;20624;-80
2023/01/20 13:27:45;;;;;;;13.53;12.43;;;5.10;99.90;;;;;;4934338;29;20273;-82
2023/01/20 13:30:41;;;;;;;13.90;12.77;;;5.10;99.90;;;;;;4919359;29;20209;-82
2023/01/20 13:33:16;;;;;;;14.07;13.07;;;5.10;99.90;;;;;;4926651;29;20198;-81
2023/01/20 13:35:46;;;;;;;13.57;12.43;;;4.90;99.90;;;;;;4931676;29;20201;-80
2023/01/20 13:38:26;;;;;;;13.70;12.60;;;4.70;99.90;;;;;;4933689;29;20278;-80
2023/01/20 13:40:55;;;;;;;13.93;12.83;;;4.50;99.90;;;;;;4931173;29;20717;-79
2023/01/20 13:43:49;;;;;;;13.77;12.73;;;4.30;99.90;;;;;;4930391;29;20287;-83
2023/01/20 13:46:48;;;;;;;14.27;13.17;;;4.20;99.90;;;;;;4930925;29;20207;-80
2023/01/20 13:49:24;;;;;;;14.30;13.30;;;4.00;99.90;;;;;;4926334;29;20247;-79
2023/01/20 13:51:51;;;;;;;15.07;13.60;;;3.90;99.90;;;;;;4932264;29;20603;-77
2023/01/20 13:54:41;;;;;;;14.00;13.00;;;3.80;99.90;;;;;;4926405;29;20290;-78
2023/01/20 13:57:32;;;;;;;14.00;12.90;;;3.70;99.90;;;;;;4924593;29;20260;-80
2023/01/20 14:00:00;;;;;;;14.53;13.33;;;3.60;99.90;;;;;;4925209;29;20251;-80
2023/01/20 14:02:29;;;;;;;15.37;14.17;;;3.50;99.90;;;;;;4916111;29;20811;-82
2023/01/20 14:04:57;;;;;;;14.60;13.43;;;3.40;99.90;;;;;;4903130;29;20657;-80
2023/01/20 14:07:25;;;;;;;14.73;13.63;;;3.30;99.90;;;;;;4917327;29;20211;-80
2023/01/20 14:09:52;;;;;;;14.93;13.73;;;3.30;99.90;;;;;;4928729;29;20215;-81
2023/01/20 14:12:19;;;;;;;15.13;13.87;;;3.20;99.90;;;;;;4928347;29;20215;-77
2023/01/20 14:14:48;;;;;;;15.70;14.50;;;3.20;99.90;;;;;;4937055;29;20200;-76
2023/01/20 14:17:21;;;;;;;15.17;13.97;;;3.10;99.90;;;;;;4930349;29;20203;-76
2023/01/20 14:19:49;;;;;;;14.90;13.80;;;3.10;99.90;;;;;;4933326;29;20203;-77
2023/01/20 14:22:23;;;;;;;14.93;13.73;;;3.10;99.90;;;;;;4929857;29;20226;-76
2023/01/20 14:24:52;;;;;;;14.87;13.77;;;3.10;99.90;;;;;;4923319;29;20260;-76
2023/01/20 14:27:20;;;;;;;14.27;13.27;;;3.10;99.90;;;;;;4932676;29;20207;-77
2023/01/20 14:29:49;;;;;;;14.43;13.30;;;3.10;99.90;;;;;;4931584;29;20211;-75
2023/01/20 14:32:19;;;;;;;14.40;13.30;;;3.20;99.90;;;;;;4933425;29;20655;-77
2023/01/20 14:34:46;;;;;;;13.47;12.47;;;3.20;99.90;;;;;;4932854;29;20259;-77
2023/01/20 14:37:25;;;;;;;13.13;12.20;;;3.40;99.90;;;;;;4927326;29;20266;-76
2023/01/20 14:39:53;;;;;;;12.73;11.83;;;3.40;99.90;;;;;;4946695;29;20203;-75
2023/01/20 14:42:22;;;;;;;12.13;11.33;;;3.40;99.90;;;;;;4931141;29;20219;-76
2023/01/20 14:44:51;;;;;;;11.77;10.97;;;3.40;99.90;;;;;;4932748;29;20262;-76
2023/01/20 14:47:20;;;;;;;12.33;11.33;;;3.50;99.90;;;;;;4930544;29;20255;-76
2023/01/20 14:49:49;;;;;;;12.00;11.20;;;3.40;99.90;;;;;;4927087;28;20627;-77
2023/01/20 14:52:21;;;;;;;11.90;11.10;;;3.50;99.90;;;;;;4930576;29;20232;-77
2023/01/20 14:54:49;;;;;;;12.50;11.70;;;3.50;99.90;;;;;;4919507;29;20200;-77
2023/01/20 14:57:23;;;;;;;11.70;10.90;;;3.50;99.90;;;;;;4927365;29;20234;-78
2023/01/20 15:00:03;;;;;;;11.73;10.80;;;3.50;99.90;;;;;;4928863;29;20561;-77
2023/01/20 15:03:05;;;;;;;10.87;10.17;;;3.50;99.90;;;;;;4927026;29;20596;-76
2023/01/20 15:05:33;;;;;;;11.10;10.40;;;3.50;99.90;;;;;;4927754;29;20692;-77
2023/01/20 15:08:20;;;;;;;11.00;10.30;;;3.50;99.90;;;;;;4930033;29;20234;-77
2023/01/20 15:11:07;;;;;;;11.73;10.93;;;3.50;99.90;;;;;;4930390;29;20227;-78
2023/01/20 15:13:34;;;;;;;11.70;10.90;;;3.50;99.90;;;;;;4934355;29;20622;-76
2023/01/20 15:16:16;;;;;;;11.27;10.57;;;3.40;99.90;;;;;;4929033;29;20207;-77
2023/01/20 15:19:05;;;;;;;11.13;10.40;;;3.40;99.90;;;;;;4929255;29;20199;-77
2023/01/20 15:21:35;;;;;;;10.90;10.10;;;3.40;99.90;;;;;;4930510;29;20674;-77
2023/01/20 15:24:12;;;;;;;11.00;10.30;;;3.30;99.90;;;;;;4929748;29;20219;-78
2023/01/20 15:26:38;;;;;;;10.87;10.13;;;3.30;99.90;;;;;;4933137;29;20626;-76
2023/01/20 15:29:20;;;;;;;11.30;10.60;;;3.30;99.90;;;;;;4932484;29;20230;-76
2023/01/20 15:31:47;;;;;;;12.50;11.57;;;3.30;99.90;;;;;;4929438;29;20211;-77
2023/01/20 15:34:16;;;;;;;12.30;11.17;;;3.20;99.90;;;;;;4927701;29;20250;-76
2023/01/20 15:36:44;;;;;;;11.80;11.00;;;3.20;99.90;;;;;;4920471;29;20657;-77
2023/01/20 15:39:11;;;;;;;12.07;11.23;;;3.20;99.90;;;;;;4933482;29;20207;-79
2023/01/20 15:41:38;;;;;;;12.27;11.37;;;3.20;99.90;;;;;;4929333;29;20608;-78
2023/01/20 15:44:05;;;;;;;12.23;11.33;;;3.10;99.90;;;;;;4924281;29;20756;-77
2023/01/20 15:46:33;;;;;;;12.20;11.30;;;3.10;99.90;;;;;;4929813;29;20205;-78
2023/01/20 15:49:00;;;;;;;12.00;11.20;;;3.00;99.90;;;;;;4927341;29;20203;-78
2023/01/20 15:51:28;;;;;;;11.10;10.40;;;2.90;99.90;;;;;;4929228;29;20600;-78
2023/01/20 15:53:55;;;;;;;11.73;10.93;;;2.90;99.90;;;;;;4926796;29;20192;-77
2023/01/20 15:56:24;;;;;;;11.87;11.07;;;2.80;99.90;;;;;;4925219;29;20631;-76
2023/01/20 15:58:51;;;;;;;11.33;10.63;;;2.80;99.90;;;;;;4930855;29;20204;-76
2023/01/20 16:01:19;;;;;;;12.20;11.10;;;2.70;99.90;;;;;;4928491;29;20246;-77
2023/01/20 16:03:46;;;;;;;12.60;11.70;;;2.60;99.90;;;;;;4930054;29;20219;-77